createdAt,value
2018-10-05T00:00:35.626Z,7.33
2018-10-05T00:03:07.551Z,11.17
2018-10-05T00:05:38.671Z,11.07
2018-10-05T00:08:10.257Z,9.67
2018-10-05T00:10:41.571Z,7.77
2018-10-05T00:13:12.571Z,8.77
2018-10-05T00:15:43.550Z,9.20
2018-10-05T00:18:14.768Z,6.70
2018-10-05T00:20:45.739Z,7.63
2018-10-05T00:23:16.796Z,7.30
2018-10-05T00:25:48.178Z,5.87
2018-10-05T00:28:19.376Z,6.60
2018-10-05T00:30:50.514Z,6.83
2018-10-05T00:33:21.743Z,7.80
2018-10-05T00:35:53.408Z,5.10
2018-10-05T00:38:24.870Z,6.30
2018-10-05T00:41:02.266Z,5.57
2018-10-05T00:43:33.355Z,9.43
2018-10-05T00:46:04.617Z,5.93
2018-10-05T00:48:35.763Z,8.23
2018-10-05T00:51:07.214Z,6.57
2018-10-05T00:53:38.573Z,6.63
2018-10-05T00:56:09.745Z,5.93
2018-10-05T00:58:41.138Z,6.53
2018-10-05T01:01:12.504Z,7.30
2018-10-05T01:03:43.686Z,5.40
2018-10-05T01:06:14.856Z,6.37
2018-10-05T01:08:46.082Z,8.13
2018-10-05T01:11:17.580Z,7.27
2018-10-05T01:13:48.827Z,5.77
2018-10-05T01:16:20.122Z,4.80
2018-10-05T01:18:51.423Z,4.50
2018-10-05T01:21:22.583Z,7.63
2018-10-05T01:23:53.782Z,8.30
2018-10-05T01:26:25.483Z,7.50
2018-10-05T01:28:56.820Z,4.93
2018-10-05T01:31:28.015Z,7.77
2018-10-05T01:33:59.465Z,3.80
2018-10-05T01:36:30.762Z,5.03
2018-10-05T01:39:01.755Z,4.63
2018-10-05T01:41:32.910Z,6.03
2018-10-05T01:44:04.144Z,6.60
2018-10-05T01:46:35.310Z,6.57
2018-10-05T01:49:06.522Z,6.00
2018-10-05T01:51:38.466Z,6.33
2018-10-05T01:54:09.952Z,4.93
2018-10-05T01:56:41.246Z,4.00
2018-10-05T01:59:12.287Z,6.53
2018-10-05T02:01:43.695Z,7.73
2018-10-05T02:04:15.334Z,6.93
2018-10-05T02:06:46.899Z,6.10
2018-10-05T02:09:18.198Z,4.97
2018-10-05T02:11:49.391Z,5.77
2018-10-05T02:14:20.639Z,8.10
2018-10-05T02:16:51.781Z,6.23
2018-10-05T02:19:23.026Z,6.23
2018-10-05T02:21:54.176Z,11.40
2018-10-05T02:24:25.339Z,5.43
2018-10-05T02:26:56.582Z,6.27
2018-10-05T02:29:27.720Z,5.37
2018-10-05T02:31:58.921Z,6.53
2018-10-05T02:34:30.099Z,5.70
2018-10-05T02:37:01.315Z,5.63
2018-10-05T02:39:32.492Z,7.30
2018-10-05T02:42:04.067Z,7.77
2018-10-05T02:44:35.088Z,6.10
2018-10-05T02:47:06.559Z,3.40
2018-10-05T02:49:38.197Z,5.70
2018-10-05T02:52:09.339Z,5.80
2018-10-05T02:54:40.634Z,6.13
2018-10-05T02:57:12.001Z,4.63
2018-10-05T02:59:43.203Z,6.17
2018-10-05T03:07:14.307Z,7.37
2018-10-05T03:09:45.603Z,7.07
2018-10-05T03:12:16.823Z,5.00
2018-10-05T03:14:48.027Z,4.97
2018-10-05T03:17:19.475Z,7.93
2018-10-05T03:19:51.155Z,7.97
2018-10-05T03:22:22.352Z,7.27
2018-10-05T03:24:53.562Z,6.20
2018-10-05T03:27:24.738Z,7.40
2018-10-05T03:29:56.195Z,5.93
2018-10-05T03:32:27.304Z,6.50
2018-10-05T03:34:58.806Z,7.40
2018-10-05T03:37:30.134Z,6.80
2018-10-05T03:40:01.147Z,7.07
2018-10-05T03:42:32.492Z,12.17
2018-10-05T03:45:03.670Z,12.90
2018-10-05T03:47:35.542Z,5.70
2018-10-05T03:50:06.744Z,5.53
2018-10-05T03:52:38.128Z,6.50
2018-10-05T03:55:09.282Z,9.67
2018-10-05T03:57:43.248Z,7.83
2018-10-05T04:00:14.554Z,4.87
2018-10-05T04:02:45.779Z,6.00
2018-10-05T04:05:16.735Z,8.33
2018-10-05T04:07:47.771Z,8.53
2018-10-05T04:10:19.617Z,8.20
2018-10-05T04:12:50.912Z,8.30
2018-10-05T04:15:22.114Z,8.37
2018-10-05T04:17:53.321Z,8.23
2018-10-05T04:20:24.367Z,7.03
2018-10-05T04:22:55.509Z,7.17
2018-10-05T04:25:26.483Z,7.53
2018-10-05T04:27:57.488Z,7.83
2018-10-05T04:30:28.671Z,6.57
2018-10-05T04:32:59.622Z,8.37
2018-10-05T04:35:30.868Z,11.17
2018-10-05T04:38:02.045Z,10.40
2018-10-05T04:40:33.246Z,9.40
2018-10-05T04:43:04.477Z,7.13
2018-10-05T04:45:35.687Z,8.70
2018-10-05T04:48:06.849Z,7.63
2018-10-05T04:50:38.092Z,7.90
2018-10-05T04:53:09.380Z,7.63
2018-10-05T04:55:40.423Z,8.13
2018-10-05T04:58:12.082Z,11.77
2018-10-05T05:00:43.185Z,9.50
2018-10-05T05:03:14.366Z,10.53
2018-10-05T05:05:45.939Z,11.27
2018-10-05T05:08:16.961Z,10.60
2018-10-05T05:10:48.154Z,14.10
2018-10-05T05:13:19.148Z,10.37
2018-10-05T05:15:50.306Z,10.37
2018-10-05T05:18:21.351Z,9.77
2018-10-05T05:20:52.391Z,12.13
2018-10-05T05:23:23.775Z,9.60
2018-10-05T05:25:54.971Z,9.67
2018-10-05T05:28:25.878Z,11.57
2018-10-05T05:30:56.847Z,8.53
2018-10-05T05:33:27.905Z,11.20
2018-10-05T05:35:59.348Z,11.40
2018-10-05T05:38:30.696Z,13.67
2018-10-05T05:41:02.109Z,8.83
2018-10-05T05:43:33.438Z,10.30
2018-10-05T05:46:04.646Z,11.53
2018-10-05T05:48:35.983Z,11.20
2018-10-05T05:51:07.451Z,12.70
2018-10-05T05:53:38.818Z,15.07
2018-10-05T05:56:10.395Z,13.07
2018-10-05T05:58:41.549Z,20.53
2018-10-05T06:01:12.605Z,22.37
2018-10-05T06:03:43.771Z,12.13
2018-10-05T06:06:14.778Z,15.67
2018-10-05T06:08:45.924Z,16.97
2018-10-05T06:11:17.115Z,16.83
2018-10-05T06:13:48.311Z,16.23
2018-10-05T06:16:19.313Z,16.00
2018-10-05T06:18:50.329Z,10.83
2018-10-05T06:21:21.361Z,13.30
2018-10-05T06:23:52.718Z,9.00
2018-10-05T06:26:24.068Z,18.20
2018-10-05T06:28:55.077Z,15.43
2018-10-05T06:31:26.119Z,14.30
2018-10-05T06:33:57.466Z,14.17
2018-10-05T06:36:29.224Z,16.57
2018-10-05T06:39:00.483Z,21.77
2018-10-05T06:41:31.818Z,22.83
2018-10-05T06:44:02.870Z,15.30
2018-10-05T06:46:34.450Z,17.47
2018-10-05T06:49:05.616Z,13.20
2018-10-05T06:51:36.650Z,12.40
2018-10-05T06:54:08.854Z,15.27
2018-10-05T06:56:40.220Z,10.00
2018-10-05T06:59:11.655Z,9.87
2018-10-05T07:01:42.987Z,14.30
2018-10-05T07:04:14.161Z,12.10
2018-10-05T07:06:45.550Z,11.97
2018-10-05T07:09:16.900Z,12.20
2018-10-05T07:11:47.890Z,11.73
2018-10-05T07:14:19.386Z,12.07
2018-10-05T07:16:50.476Z,10.83
2018-10-05T07:19:21.476Z,11.23
2018-10-05T07:21:52.686Z,10.60
2018-10-05T07:24:23.866Z,10.30
2018-10-05T07:26:55.518Z,12.80
2018-10-05T07:29:26.834Z,9.93
2018-10-05T07:31:58.077Z,11.90
2018-10-05T07:34:29.386Z,14.50
2018-10-05T07:37:00.958Z,17.67
2018-10-05T07:39:32.163Z,12.13
2018-10-05T07:42:03.678Z,14.17
2018-10-05T07:44:34.826Z,13.00
2018-10-05T07:47:05.972Z,12.30
2018-10-05T07:49:37.150Z,8.90
2018-10-05T07:52:08.194Z,13.77
2018-10-05T07:54:39.544Z,8.00
2018-10-05T07:57:10.734Z,11.13
2018-10-05T07:59:42.434Z,10.53
2018-10-05T08:02:14.367Z,13.70
2018-10-05T08:04:45.702Z,10.47
2018-10-05T08:10:27.467Z,10.37
2018-10-05T08:12:58.688Z,10.30
2018-10-05T08:15:29.881Z,9.60
2018-10-05T08:18:00.908Z,13.33
2018-10-05T08:20:32.115Z,8.73
2018-10-05T08:23:03.505Z,7.63
2018-10-05T08:25:34.659Z,10.03
2018-10-05T08:28:05.693Z,9.77
2018-10-05T08:30:37.346Z,13.87
2018-10-05T08:33:08.880Z,10.73
2018-10-05T08:35:40.041Z,12.40
2018-10-05T08:38:11.393Z,9.63
2018-10-05T08:40:42.712Z,6.20
2018-10-05T08:43:14.297Z,11.57
2018-10-05T08:45:45.449Z,8.87
2018-10-05T08:48:16.589Z,10.03
2018-10-05T08:50:47.944Z,8.97
2018-10-05T08:53:19.181Z,14.97
2018-10-05T08:55:50.482Z,9.17
2018-10-05T08:58:21.564Z,7.00
2018-10-05T09:00:52.962Z,8.20
2018-10-05T09:03:24.330Z,9.07
2018-10-05T09:05:55.567Z,7.80
2018-10-05T09:08:27.992Z,7.20
2018-10-05T09:10:59.918Z,8.10
2018-10-05T09:13:31.209Z,9.50
2018-10-05T09:16:02.639Z,7.80
2018-10-05T09:18:33.854Z,9.33
2018-10-05T09:21:05.201Z,9.90
2018-10-05T09:23:36.815Z,6.07
2018-10-05T09:26:08.552Z,9.83
2018-10-05T09:28:39.593Z,10.40
2018-10-05T09:31:10.739Z,5.70
2018-10-05T09:33:41.931Z,7.73
2018-10-05T09:36:12.936Z,8.07
2018-10-05T09:38:44.444Z,11.33
2018-10-05T09:41:15.927Z,7.23
2018-10-05T09:43:47.590Z,9.90
2018-10-05T09:46:18.693Z,5.77
2018-10-05T09:48:49.679Z,6.20
2018-10-05T09:51:20.843Z,5.87
2018-10-05T09:53:52.068Z,8.40
2018-10-05T09:56:23.267Z,6.17
2018-10-05T09:58:54.296Z,7.23
2018-10-05T10:02:29.902Z,8.43
2018-10-05T10:05:01.101Z,5.83
2018-10-05T10:07:32.612Z,8.93
2018-10-05T10:10:03.961Z,5.23
2018-10-05T10:12:35.899Z,8.13
2018-10-05T10:15:07.181Z,6.57
2018-10-05T10:17:38.474Z,10.13
2018-10-05T10:20:09.678Z,5.87
2018-10-05T10:22:40.949Z,6.13
2018-10-05T10:25:12.558Z,7.93
2018-10-05T10:27:43.988Z,5.53
2018-10-05T10:30:15.022Z,5.67
2018-10-05T10:32:46.207Z,7.87
2018-10-05T10:35:17.409Z,5.70
2018-10-05T10:37:48.432Z,4.87
2018-10-05T10:40:19.857Z,9.50
2018-10-05T10:42:51.393Z,8.23
2018-10-05T10:45:22.735Z,9.90
2018-10-05T10:47:53.745Z,13.20
2018-10-05T10:50:24.924Z,6.20
2018-10-05T10:52:56.175Z,6.47
2018-10-05T10:55:27.636Z,8.45
2018-10-05T10:57:58.915Z,6.37
2018-10-05T11:00:30.426Z,14.63
2018-10-05T11:03:02.315Z,8.73
2018-10-05T11:05:33.700Z,7.13
2018-10-05T11:08:05.133Z,6.08
2018-10-05T11:10:36.509Z,6.93
2018-10-05T11:13:07.903Z,6.57
2018-10-05T11:15:39.033Z,9.27
2018-10-05T11:18:10.395Z,6.17
2018-10-05T11:20:41.588Z,9.97
2018-10-05T11:23:12.807Z,5.62
2018-10-05T11:25:44.083Z,5.43
2018-10-05T11:28:15.580Z,6.28
2018-10-05T11:30:47.018Z,6.90
2018-10-05T11:33:18.145Z,6.60
2018-10-05T11:35:49.357Z,5.60
2018-10-05T11:38:20.727Z,13.57
2018-10-05T11:40:52.068Z,7.90
2018-10-05T11:43:23.109Z,5.50
2018-10-05T11:45:54.396Z,5.53
2018-10-05T11:48:25.744Z,4.40
2018-10-05T11:50:56.891Z,5.58
2018-10-05T11:53:28.056Z,8.33
2018-10-05T11:55:59.299Z,6.17
2018-10-05T11:58:30.490Z,8.57
2018-10-05T12:01:02.516Z,7.45
2018-10-05T12:03:33.839Z,8.40
2018-10-05T12:06:05.032Z,5.67
2018-10-05T12:08:36.401Z,4.97
2018-10-05T12:11:07.959Z,7.40
2018-10-05T12:13:39.160Z,6.05
2018-10-05T12:16:10.173Z,6.47
2018-10-05T12:18:41.349Z,7.45
2018-10-05T12:21:12.631Z,4.53
2018-10-05T12:23:43.936Z,5.97
2018-10-05T12:26:15.157Z,5.92
2018-10-05T12:28:46.355Z,6.42
2018-10-05T12:31:17.525Z,5.17
2018-10-05T12:33:48.858Z,9.07
2018-10-05T12:36:20.117Z,5.10
2018-10-05T12:38:51.146Z,5.90
2018-10-05T12:41:23.069Z,8.65
2018-10-05T12:43:54.767Z,3.90
2018-10-05T12:46:25.900Z,4.53
2018-10-05T12:48:57.215Z,8.95
2018-10-05T12:51:28.465Z,5.60
2018-10-05T12:53:59.907Z,6.53
2018-10-05T12:56:31.280Z,5.70
2018-10-05T12:59:02.625Z,10.38
2018-10-05T13:01:33.957Z,6.03
2018-10-05T13:04:05.156Z,10.18
2018-10-05T13:06:36.355Z,5.62
2018-10-05T13:09:09.196Z,6.22
2018-10-05T13:11:40.366Z,6.78
2018-10-05T13:14:11.979Z,6.93
2018-10-05T13:16:43.269Z,7.90
2018-10-05T13:19:14.273Z,4.53
2018-10-05T13:21:46.234Z,5.50
2018-10-05T13:24:17.311Z,5.75
2018-10-05T13:26:48.664Z,6.42
2018-10-05T13:29:20.033Z,7.67
2018-10-05T13:31:51.256Z,6.97
2018-10-05T13:34:22.932Z,5.13
2018-10-05T13:36:54.183Z,5.42
2018-10-05T13:39:25.407Z,5.10
2018-10-05T13:41:56.747Z,4.17
2018-10-05T13:44:27.772Z,4.50
2018-10-05T13:46:58.992Z,7.17
2018-10-05T13:49:30.768Z,5.00
2018-10-05T13:52:02.120Z,7.55
2018-10-05T13:54:33.348Z,13.73
2018-10-05T13:57:04.539Z,6.43
2018-10-05T13:59:35.699Z,6.00
2018-10-05T14:02:06.945Z,4.07
2018-10-05T14:04:38.081Z,5.10
2018-10-05T14:07:09.380Z,5.50
2018-10-05T14:09:40.671Z,5.27
2018-10-05T14:12:11.932Z,5.23
2018-10-05T14:14:43.233Z,4.27
2018-10-05T14:17:14.719Z,7.13
2018-10-05T14:19:46.028Z,6.03
2018-10-05T14:22:17.215Z,9.03
2018-10-05T14:24:48.404Z,4.27
2018-10-05T14:27:19.408Z,4.77
2018-10-05T14:29:51.271Z,8.83
2018-10-05T14:32:22.657Z,5.87
2018-10-05T14:34:53.963Z,7.57
2018-10-05T14:37:25.168Z,5.10
2018-10-05T14:39:56.208Z,4.10
2018-10-05T14:42:27.554Z,6.20
2018-10-05T14:44:58.957Z,6.57
2018-10-05T14:47:30.114Z,7.97
2018-10-05T14:50:01.217Z,6.23
2018-10-05T14:52:32.503Z,5.93
2018-10-05T14:55:03.792Z,5.33
2018-10-05T14:57:35.165Z,5.80
2018-10-05T15:00:07.540Z,7.37
2018-10-05T15:02:39.207Z,5.23
2018-10-05T15:05:10.756Z,5.40
2018-10-05T15:07:42.004Z,7.47
2018-10-05T15:10:12.997Z,5.40
2018-10-05T15:12:44.229Z,6.63
2018-10-05T15:15:15.408Z,5.07
2018-10-05T15:17:46.592Z,5.43
2018-10-05T15:20:18.052Z,5.90
2018-10-05T15:22:49.177Z,5.43
2018-10-05T15:25:20.171Z,8.00
2018-10-05T15:27:51.532Z,5.53
2018-10-05T15:30:22.728Z,4.50
2018-10-05T15:32:54.066Z,7.53
2018-10-05T15:35:25.304Z,6.73
2018-10-05T15:37:56.321Z,5.40
2018-10-05T15:40:27.496Z,6.90
2018-10-05T15:42:58.715Z,8.33
2018-10-05T15:45:30.107Z,7.33
2018-10-05T15:48:01.465Z,6.77
2018-10-05T15:50:32.684Z,9.63
2018-10-05T15:53:03.968Z,7.90
2018-10-05T15:55:35.239Z,7.30
2018-10-05T15:58:06.455Z,6.73
2018-10-05T16:00:37.673Z,6.87
2018-10-05T16:03:09.095Z,6.50
2018-10-05T16:05:40.254Z,4.13
2018-10-05T16:08:11.615Z,6.70
2018-10-05T16:10:42.977Z,6.27
2018-10-05T16:13:14.536Z,9.50
2018-10-05T16:15:45.572Z,6.73
2018-10-05T16:18:16.600Z,6.73
2018-10-05T16:20:47.948Z,5.90
2018-10-05T16:23:25.476Z,4.70
2018-10-05T16:25:56.861Z,6.73
2018-10-05T16:28:28.035Z,5.33
2018-10-05T16:30:59.403Z,7.77
2018-10-05T16:33:30.840Z,6.80
2018-10-05T16:36:02.200Z,9.47
2018-10-05T16:38:33.591Z,10.97
2018-10-05T16:41:04.888Z,7.43
2018-10-05T16:43:36.033Z,7.97
2018-10-05T16:46:07.298Z,9.13
2018-10-05T16:48:39.326Z,8.00
2018-10-05T16:51:10.505Z,5.60
2018-10-05T16:53:41.493Z,9.87
2018-10-05T16:56:12.530Z,6.07
2018-10-05T16:58:43.882Z,4.90
2018-10-05T17:01:15.065Z,5.93
2018-10-05T17:03:46.400Z,9.97
2018-10-05T17:06:17.675Z,8.97
2018-10-05T17:08:50.735Z,8.60
2018-10-05T17:11:22.168Z,9.60
2018-10-05T17:13:53.673Z,7.50
2018-10-05T17:16:24.966Z,8.70
2018-10-05T17:18:56.377Z,8.60
2018-10-05T17:21:27.408Z,7.60
2018-10-05T17:23:58.858Z,8.43
2018-10-05T17:26:30.168Z,7.80
2018-10-05T17:29:01.361Z,8.60
2018-10-05T17:31:33.515Z,10.13
2018-10-05T17:34:04.700Z,7.80
2018-10-05T17:36:35.695Z,7.33
2018-10-05T17:39:10.690Z,7.00
2018-10-05T17:41:41.819Z,8.53
2018-10-05T17:44:13.063Z,10.20
2018-10-05T17:46:50.920Z,8.30
2018-10-05T17:49:22.272Z,6.20
2018-10-05T17:51:53.485Z,5.43
2018-10-05T17:54:24.659Z,7.83
2018-10-05T17:56:55.863Z,5.60
2018-10-05T17:59:27.252Z,6.57
2018-10-05T18:01:58.492Z,7.30
2018-10-05T18:04:30.154Z,8.23
2018-10-05T18:07:01.228Z,7.87
2018-10-05T18:09:32.611Z,5.53
2018-10-05T18:12:04.096Z,9.37
2018-10-05T18:14:35.351Z,8.67
2018-10-05T18:17:06.871Z,8.87
2018-10-05T18:19:38.150Z,6.40
2018-10-05T18:22:09.728Z,10.37
2018-10-05T18:24:40.947Z,8.13
2018-10-05T18:27:12.140Z,6.33
2018-10-05T18:29:43.501Z,7.10
2018-10-05T18:32:14.500Z,5.03
2018-10-05T18:34:45.904Z,7.60
2018-10-05T18:37:17.285Z,8.37
2018-10-05T18:39:48.433Z,8.97
2018-10-05T18:42:19.673Z,6.20
2018-10-05T18:44:51.033Z,7.10
2018-10-05T18:47:22.288Z,4.73
2018-10-05T18:49:53.473Z,5.20
2018-10-05T18:52:25.176Z,9.00
2018-10-05T18:54:56.433Z,7.13
2018-10-05T18:57:27.765Z,6.20
2018-10-05T18:59:58.817Z,9.20
2018-10-05T19:02:30.185Z,7.77
2018-10-05T19:05:01.204Z,8.00
2018-10-05T19:07:33.248Z,8.23
2018-10-05T19:10:04.678Z,7.00
2018-10-05T19:12:35.931Z,6.77
2018-10-05T19:15:07.186Z,5.67
2018-10-05T19:17:38.503Z,5.50
2018-10-05T19:20:09.866Z,6.95
2018-10-05T19:22:41.185Z,4.57
2018-10-05T19:25:12.505Z,5.43
2018-10-05T19:27:43.890Z,7.67
2018-10-05T19:30:15.110Z,3.97
2018-10-05T19:32:46.444Z,4.90
2018-10-05T19:35:17.845Z,5.50
2018-10-05T19:37:49.144Z,7.43
2018-10-05T19:40:20.421Z,7.03
2018-10-05T19:42:51.718Z,5.53
2018-10-05T19:45:22.813Z,3.90
2018-10-05T19:47:54.028Z,6.33
2018-10-05T19:50:25.445Z,8.83
2018-10-05T19:52:57.385Z,6.13
2018-10-05T19:55:28.759Z,7.33
2018-10-05T19:58:00.150Z,6.10
2018-10-05T20:00:31.350Z,6.50
2018-10-05T20:03:02.712Z,6.07
2018-10-05T20:05:34.393Z,7.07
2018-10-05T20:08:05.708Z,6.27
2018-10-05T20:10:37.215Z,4.27
2018-10-05T20:13:08.424Z,5.73
2018-10-05T20:15:39.649Z,10.47
2018-10-05T20:18:10.705Z,8.33
2018-10-05T20:20:42.100Z,6.23
2018-10-05T20:23:13.435Z,4.83
2018-10-05T20:25:44.837Z,5.40
2018-10-05T20:28:16.504Z,7.63
2018-10-05T20:30:47.781Z,7.57
2018-10-05T20:33:19.615Z,5.33
2018-10-05T20:35:53.737Z,6.07
2018-10-05T20:38:24.878Z,5.63
2018-10-05T20:40:56.369Z,6.93
2018-10-05T20:43:27.701Z,7.00
2018-10-05T20:45:58.952Z,5.47
2018-10-05T20:48:30.533Z,5.83
2018-10-05T20:51:01.920Z,5.40
2018-10-05T20:53:33.010Z,3.93
2018-10-05T20:56:04.084Z,5.63
2018-10-05T20:58:35.389Z,4.93
2018-10-05T21:01:06.596Z,5.97
2018-10-05T21:03:37.781Z,6.80
2018-10-05T21:06:09.020Z,6.10
2018-10-05T21:08:40.165Z,6.70
2018-10-05T21:11:11.269Z,5.27
2018-10-05T21:13:42.379Z,6.43
2018-10-05T21:16:13.769Z,6.23
2018-10-05T21:18:44.973Z,7.23
2018-10-05T21:21:16.914Z,6.80
2018-10-05T21:23:48.337Z,6.37
2018-10-05T21:26:19.525Z,5.27
2018-10-05T21:28:50.956Z,5.87
2018-10-05T21:31:22.613Z,6.40
2018-10-05T21:33:54.846Z,6.43
2018-10-05T21:36:25.829Z,6.57
2018-10-05T21:38:57.036Z,6.23
2018-10-05T21:41:28.219Z,7.87
2018-10-05T21:43:59.422Z,7.70
2018-10-05T21:46:30.477Z,6.33
2018-10-05T21:49:01.606Z,5.20
2018-10-05T21:51:32.910Z,6.83
2018-10-05T21:54:04.213Z,8.23
2018-10-05T21:56:35.622Z,5.60
2018-10-05T21:59:06.969Z,5.47
2018-10-05T22:01:38.355Z,4.80
2018-10-05T22:04:09.349Z,7.30
2018-10-05T22:06:40.766Z,7.87
2018-10-05T22:09:12.541Z,5.63
2018-10-05T22:11:43.704Z,6.50
2018-10-05T22:14:14.900Z,5.07
2018-10-05T22:16:45.888Z,8.63
2018-10-05T22:19:17.085Z,6.50
2018-10-05T22:21:48.825Z,8.80
2018-10-05T22:24:20.531Z,6.53
2018-10-05T22:26:51.676Z,5.77
2018-10-05T22:29:22.919Z,6.13
2018-10-05T22:31:54.232Z,4.60
2018-10-05T22:34:25.546Z,5.97
2018-10-05T22:36:56.812Z,5.57
2018-10-05T22:39:28.483Z,5.87
2018-10-05T22:42:00.289Z,5.23
2018-10-05T22:44:31.344Z,10.30
2018-10-05T22:47:02.857Z,7.27
2018-10-05T22:49:34.401Z,6.60
2018-10-05T22:52:05.639Z,5.30
2018-10-05T22:54:36.732Z,7.93
2018-10-05T22:57:08.100Z,8.27
2018-10-05T22:59:39.332Z,5.73
2018-10-05T23:02:10.671Z,5.87
2018-10-05T23:04:41.872Z,5.57
2018-10-05T23:07:13.072Z,9.00
2018-10-05T23:09:44.429Z,6.43
2018-10-05T23:12:15.942Z,5.47
2018-10-05T23:14:47.222Z,5.47
2018-10-05T23:17:18.408Z,4.73
2018-10-05T23:19:49.605Z,6.37
2018-10-05T23:22:20.665Z,7.80
2018-10-05T23:24:52.019Z,6.00
2018-10-05T23:27:23.396Z,5.73
2018-10-05T23:29:55.053Z,6.53
2018-10-05T23:32:26.154Z,6.23
2018-10-05T23:34:57.346Z,5.90
2018-10-05T23:37:28.628Z,8.50
2018-10-05T23:39:59.935Z,5.70
2018-10-05T23:42:30.941Z,6.80
2018-10-05T23:45:02.331Z,8.97
2018-10-05T23:47:34.189Z,5.80
2018-10-05T23:50:05.373Z,6.73
2018-10-05T23:52:41.084Z,5.73
2018-10-05T23:55:12.403Z,3.43
2018-10-05T23:57:43.855Z,6.87
